createdAt,value
2022-09-11T00:04:52.162Z,14.37
2022-09-11T00:09:57.807Z,14.32
2022-09-11T00:15:01.772Z,14.41
2022-09-11T00:20:06.342Z,14.37
2022-09-11T00:25:11.787Z,14.23
2022-09-11T00:30:15.945Z,13.97
2022-09-11T00:35:19.866Z,14.21
2022-09-11T00:40:25.732Z,13.93
2022-09-11T00:45:29.960Z,14.08
2022-09-11T00:50:34.358Z,13.90
2022-09-11T00:55:44.819Z,13.98
2022-09-11T01:00:49.239Z,14.20
2022-09-11T01:05:55.418Z,14.32
2022-09-11T01:11:13.962Z,14.01
2022-09-11T01:16:24.612Z,13.86
2022-09-11T01:22:01.120Z,14.01
2022-09-11T01:27:42.775Z,13.95
2022-09-11T01:33:13.988Z,13.89
2022-09-11T01:38:23.770Z,13.62
2022-09-11T01:43:31.870Z,13.59
2022-09-11T01:48:41.348Z,13.84
2022-09-11T01:53:50.398Z,13.87
2022-09-11T01:59:00.641Z,13.97
2022-09-11T02:04:10.739Z,13.88
2022-09-11T02:09:18.046Z,13.63
2022-09-11T02:14:29.605Z,13.90
2022-09-11T02:19:33.803Z,13.89
2022-09-11T02:24:37.803Z,13.87
2022-09-11T02:29:43.819Z,13.86
2022-09-11T02:34:48.891Z,13.93
2022-09-11T02:40:15.092Z,13.94
2022-09-11T02:45:34.462Z,14.05
2022-09-11T02:50:47.117Z,13.92
2022-09-11T02:56:00.753Z,13.96
2022-09-11T03:01:10.054Z,14.03
2022-09-11T03:06:19.013Z,13.96
2022-09-11T03:11:23.420Z,13.87
2022-09-11T03:16:29.107Z,14.02
2022-09-11T03:21:33.454Z,13.88
2022-09-11T03:26:37.588Z,14.13
2022-09-11T03:31:43.228Z,14.11
2022-09-11T03:36:49.289Z,14.14
2022-09-11T03:41:54.354Z,14.00
2022-09-11T03:47:01.484Z,14.10
2022-09-11T03:52:06.164Z,14.17
2022-09-11T03:57:10.867Z,14.25
2022-09-11T04:02:17.175Z,14.34
2022-09-11T04:07:22.577Z,14.31
2022-09-11T04:12:27.597Z,14.37
2022-09-11T04:17:35.123Z,14.31
2022-09-11T04:22:39.953Z,14.32
2022-09-11T04:27:44.034Z,14.48
2022-09-11T04:32:53.966Z,14.29
2022-09-11T04:37:59.006Z,14.38
2022-09-11T04:43:04.224Z,14.52
2022-09-11T04:48:10.036Z,14.44
2022-09-11T04:53:14.135Z,14.54
2022-09-11T04:58:19.282Z,14.55
2022-09-11T05:03:24.735Z,14.63
2022-09-11T05:08:33.626Z,14.68
2022-09-11T05:13:39.964Z,14.73
2022-09-11T05:18:50.502Z,14.87
2022-09-11T05:23:55.866Z,14.88
2022-09-11T05:29:02.725Z,14.85
2022-09-11T05:34:10.392Z,14.78
2022-09-11T05:39:14.783Z,14.94
2022-09-11T05:44:19.609Z,15.04
2022-09-11T05:49:25.749Z,15.12
2022-09-11T05:54:29.709Z,15.11
2022-09-11T05:59:36.863Z,14.88
2022-09-11T06:04:42.529Z,14.96
2022-09-11T06:09:46.388Z,15.28
2022-09-11T06:14:49.970Z,15.26
2022-09-11T06:19:55.782Z,15.54
2022-09-11T06:24:59.978Z,15.48
2022-09-11T06:30:04.557Z,15.27
2022-09-11T06:35:13.919Z,15.37
2022-09-11T06:40:18.561Z,15.45
2022-09-11T06:45:22.687Z,15.48
2022-09-11T06:50:27.957Z,15.71
2022-09-11T06:55:41.596Z,15.90
2022-09-11T07:00:52.301Z,15.80
2022-09-11T07:05:57.759Z,15.93
2022-09-11T07:11:04.897Z,15.86
2022-09-11T07:16:12.614Z,16.02
2022-09-11T07:21:22.804Z,16.22
2022-09-11T07:26:30.953Z,16.29
2022-09-11T07:31:42.871Z,16.39
2022-09-11T07:36:52.086Z,16.33
2022-09-11T07:41:57.813Z,16.35
2022-09-11T07:47:07.286Z,16.48
2022-09-11T07:52:20.686Z,16.49
2022-09-11T07:57:32.566Z,16.45
2022-09-11T08:02:40.109Z,16.32
2022-09-11T08:07:45.991Z,16.68
2022-09-11T08:12:55.706Z,16.62
2022-09-11T08:18:02.885Z,16.48
2022-09-11T08:23:08.982Z,16.81
2022-09-11T08:28:14.250Z,16.59
2022-09-11T08:33:19.751Z,16.62
2022-09-11T08:38:25.801Z,16.96
2022-09-11T08:43:35.823Z,16.91
2022-09-11T08:48:51.185Z,16.72
2022-09-11T08:54:00.340Z,16.88
2022-09-11T08:59:25.274Z,17.23
2022-09-11T09:04:51.343Z,17.36
2022-09-11T09:10:07.878Z,17.54
2022-09-11T09:15:39.601Z,17.67
2022-09-11T09:20:48.030Z,17.52
2022-09-11T09:25:57.324Z,17.05
2022-09-11T09:31:07.872Z,17.15
2022-09-11T09:36:21.671Z,17.33
2022-09-11T09:42:10.090Z,17.38
2022-09-11T09:47:15.936Z,18.80
2022-09-11T09:52:23.025Z,18.41
2022-09-11T09:57:32.827Z,18.66
2022-09-11T10:02:42.183Z,19.71
2022-09-11T10:07:54.703Z,20.32
2022-09-11T10:13:18.659Z,19.67
2022-09-11T10:18:36.241Z,19.10
2022-09-11T10:23:46.613Z,18.78
2022-09-11T10:28:55.530Z,20.10
2022-09-11T10:34:02.254Z,19.70
2022-09-11T10:39:08.957Z,18.84
2022-09-11T10:44:17.357Z,18.38
2022-09-11T10:49:24.260Z,18.18
2022-09-11T10:54:41.808Z,18.01
2022-09-11T10:59:59.396Z,18.05
2022-09-11T11:05:06.103Z,17.80
2022-09-11T11:10:26.882Z,18.09
2022-09-11T11:15:46.292Z,18.25
2022-09-11T11:20:59.530Z,18.23
2022-09-11T11:26:24.147Z,19.20
2022-09-11T11:31:46.033Z,19.00
2022-09-11T11:37:17.381Z,18.87
2022-09-11T11:42:27.405Z,18.66
2022-09-11T11:47:38.991Z,20.39
2022-09-11T11:52:54.373Z,20.15
2022-09-11T11:58:06.367Z,20.33
2022-09-11T12:03:19.834Z,19.78
2022-09-11T12:08:24.430Z,19.65
2022-09-11T12:13:35.525Z,20.12
2022-09-11T12:18:44.172Z,20.35
2022-09-11T12:24:14.382Z,19.75
2022-09-11T12:29:58.333Z,20.05
2022-09-11T12:35:19.442Z,20.00
2022-09-11T12:40:33.544Z,20.12
2022-09-11T12:45:38.862Z,20.90
2022-09-11T12:50:51.124Z,20.65
2022-09-11T12:56:03.139Z,20.53
2022-09-11T13:01:22.926Z,20.52
2022-09-11T13:06:41.455Z,20.49
2022-09-11T13:11:50.342Z,20.18
2022-09-11T13:17:28.170Z,20.31
2022-09-11T13:22:36.162Z,20.50
2022-09-11T13:27:48.094Z,20.68
2022-09-11T13:33:02.417Z,20.36
2022-09-11T13:38:12.975Z,20.77
2022-09-11T13:43:20.289Z,20.55
2022-09-11T13:48:25.044Z,20.07
2022-09-11T13:53:33.860Z,20.02
2022-09-11T13:58:39.558Z,19.66
2022-09-11T14:03:46.980Z,19.39
2022-09-11T14:08:58.137Z,19.96
2022-09-11T14:14:11.562Z,20.35
2022-09-11T14:19:22.440Z,20.36
2022-09-11T14:24:40.947Z,20.53
2022-09-11T14:29:53.673Z,20.32
2022-09-11T14:34:57.192Z,20.65
2022-09-11T14:40:06.228Z,20.70
2022-09-11T14:45:12.018Z,20.23
2022-09-11T14:50:15.848Z,20.36
2022-09-11T14:55:21.623Z,20.47
2022-09-11T15:00:25.210Z,20.13
2022-09-11T15:05:29.127Z,20.20
2022-09-11T15:10:38.008Z,20.46
2022-09-11T15:15:43.372Z,19.94
2022-09-11T15:20:47.933Z,19.52
2022-09-11T15:26:01.381Z,19.15
2022-09-11T15:31:05.683Z,18.47
2022-09-11T15:36:10.114Z,18.28
2022-09-11T15:41:15.872Z,18.71
2022-09-11T15:46:23.190Z,18.57
2022-09-11T15:51:27.702Z,18.56
2022-09-11T15:56:35.759Z,18.35
2022-09-11T16:01:40.185Z,18.19
2022-09-11T16:06:46.106Z,18.26
2022-09-11T16:11:54.980Z,18.38
2022-09-11T16:16:59.282Z,18.66
2022-09-11T16:22:05.431Z,18.53
2022-09-11T16:27:12.281Z,18.18
2022-09-11T16:32:28.459Z,18.30
2022-09-11T16:37:34.527Z,18.18
2022-09-11T16:42:39.456Z,18.31
2022-09-11T16:47:44.496Z,18.13
2022-09-11T16:52:51.089Z,17.83
2022-09-11T16:58:00.099Z,17.59
2022-09-11T17:03:09.295Z,17.45
2022-09-11T17:08:13.920Z,16.97
2022-09-11T17:13:23.652Z,16.96
2022-09-11T17:18:28.251Z,16.52
2022-09-11T17:23:32.585Z,16.39
2022-09-11T17:28:42.075Z,16.40
2022-09-11T17:33:46.411Z,16.26
2022-09-11T17:38:55.250Z,16.08
2022-09-11T17:44:00.464Z,16.01
2022-09-11T17:49:07.569Z,15.88
2022-09-11T17:54:11.233Z,15.97
2022-09-11T17:59:17.308Z,15.88
2022-09-11T18:04:21.922Z,15.45
2022-09-11T18:09:28.091Z,15.43
2022-09-11T18:14:34.676Z,15.47
2022-09-11T18:19:41.379Z,15.70
2022-09-11T18:24:49.753Z,15.78
2022-09-11T18:29:55.339Z,15.79
2022-09-11T18:35:00.231Z,15.73
2022-09-11T18:40:05.217Z,15.76
2022-09-11T18:45:19.047Z,15.74
2022-09-11T18:50:24.106Z,15.68
2022-09-11T18:55:29.003Z,15.49
2022-09-11T19:00:34.902Z,15.07
2022-09-11T19:05:45.771Z,15.05
2022-09-11T19:10:52.659Z,14.92
2022-09-11T19:16:16.650Z,14.46
2022-09-11T19:21:26.764Z,14.44
2022-09-11T19:26:31.986Z,14.01
2022-09-11T19:31:39.423Z,14.14
2022-09-11T19:36:43.446Z,13.94
2022-09-11T19:41:50.294Z,13.78
2022-09-11T19:46:56.462Z,13.65
2022-09-11T19:52:02.254Z,13.57
2022-09-11T19:57:06.948Z,13.45
2022-09-11T20:02:14.742Z,13.31
2022-09-11T20:07:18.705Z,13.07
2022-09-11T20:12:22.587Z,12.81
2022-09-11T20:17:29.564Z,12.83
2022-09-11T20:22:33.742Z,12.89
2022-09-11T20:27:38.945Z,13.01
2022-09-11T20:32:47.809Z,12.72
2022-09-11T20:37:53.093Z,12.71
2022-09-11T20:43:00.488Z,12.35
2022-09-11T20:48:05.953Z,12.54
2022-09-11T20:53:10.374Z,12.45
2022-09-11T20:58:14.598Z,12.24
2022-09-11T21:03:21.010Z,12.31
2022-09-11T21:08:25.724Z,12.13
2022-09-11T21:13:30.447Z,12.00
2022-09-11T21:18:36.498Z,12.01
2022-09-11T21:23:40.626Z,11.79
2022-09-11T21:28:45.189Z,11.72
2022-09-11T21:33:50.671Z,11.68
2022-09-11T21:38:54.513Z,11.68
2022-09-11T21:43:58.365Z,11.62
2022-09-11T21:49:03.957Z,11.51
2022-09-11T21:54:07.740Z,11.47
2022-09-11T21:59:11.317Z,11.35
2022-09-11T22:04:16.444Z,11.25
2022-09-11T22:09:20.886Z,11.37
2022-09-11T22:14:25.247Z,11.00
2022-09-11T22:19:30.449Z,11.07
2022-09-11T22:24:33.986Z,11.20
2022-09-11T22:29:38.194Z,11.01
2022-09-11T22:34:43.325Z,10.90
2022-09-11T22:39:47.239Z,10.69
2022-09-11T22:44:51.171Z,10.67
2022-09-11T22:49:56.111Z,10.66
2022-09-11T22:55:00.126Z,10.58
2022-09-11T23:00:09.153Z,10.52
2022-09-11T23:05:31.555Z,10.55
2022-09-11T23:10:35.443Z,10.54
2022-09-11T23:15:39.138Z,10.39
2022-09-11T23:20:44.170Z,10.31
2022-09-11T23:25:47.810Z,10.24
2022-09-11T23:30:51.281Z,10.19
2022-09-11T23:35:56.225Z,9.94
2022-09-11T23:40:59.670Z,10.05
2022-09-11T23:46:03.297Z,10.04
2022-09-11T23:51:10.543Z,10.13
2022-09-11T23:56:15.392Z,9.99
